Strona główna
METAR-TAF:

METAR-TAF

Lotnisko :

Ohio State University Airport

Columbus, Ohio, Stany Zjednoczone

Szerokość geograficzna: 40-04-41N, Długość geograficzna: 083-04-41W, wysokość: 275 m

Aktualna obserwacja pogody

Raport powstał 1 godzina i 4 minut temu, godzina 05:53 UTC
Wiatr 4 kt od północno-północny wschód
Temperatura 2°C
Wilgotność 93%
Ciśnienie 1020 hPa
Widzialność: 16.1 km
bezchmurnie

METAR: KOSU 060553Z AUTO 02004KT 10SM CLR 02/01 A3013 RMK AO2 SLP208 T00170006 10083 20017 58005

czas: 02:57 (06:57 UTC)


TAF: brakujący

Obserwacja i prognoza pogody dla ponad 4000 lotnisk (raport METAR i TAF).

Dostępne stacje oznaczono żółtymi i czerwonymi punktami na mapie.

Najedź kursorem aby zobaczyć nazwę stacji.

Kliknij aby zobaczyć obserwacje i prognozy pogody.

Aby zmienić mapę: kliknij na zielony przycisk z czarnym krzyżykiem, aby powiększyć; na zielony przycisk z myślnikiem, aby pomniejszyć; na zielone strzałki, aby przejść do map sąsiednich.


METAR-TAF: